モントリオール/トルドー の空港の天気 - METARとTAF

モントリオール・ピエール・エリオット・トルドー国際空港 ( CYUL / YUL ) - カナダ ケベック州モントリオール
飛行場実況気象(Metar)
観測時間05/30 14:00 EDT (05/30 18:00 UTC)
風向・風速西南西 8m/s 瞬間風速10m/s
視程10km以上
天気現象
全天の4割程度の雲 雲底高度 1520m
全天の4割程度の雲 雲底高度 5490m
全天の4割程度の雲 雲底高度 7320m
気温21℃
湿度43%
気圧1009.9hPa
METARCYUL 301800Z 25015G20KT 220V290 30SM SCT050 SCT180 SCT240 21/08 A2982 RMK CU4AC1CI1 AC TR CI TR SLP099 DENSITY ALT 1000FT
過去の天気等 Google飛行場航空写真 Wunderground天気予報

過去48時間のMETAR

飛行場予報(TAF)
発表時間: 5/30 13:38 EDT (5/30 17:38 UTC)
予報対象時間: 30日14時 EDT ~ 31日14時 EDT
風向・風速西南西 6m/s 瞬間風速 11m/s
視程10km以上
全天の4割程度の雲 雲底高度 1220m
30日17時 EDT から
風向・風速西南西 5m/s
視程10km以上
全天の8割程度の雲 雲底高度 1830m
30日17時 EDT ~ 30日19時 EDT に一時的に
視程10km以上
天気現象弱いしゅう雨
30日19時 EDT から
風向・風速西南西 6m/s 瞬間風速 11m/s
視程10km以上
全天を覆う雲 雲底高度 910m
30日19時 EDT ~ 30日23時 EDT に一時的に
風向・風速不定 8m/s 瞬間風速 13m/s
視程6440m
天気現象しゅう雨 もや
全天を覆う雲 雲底高度 610m
30日23時 EDT から
風向・風速西北西 6m/s 瞬間風速 11m/s
視程10km以上
全天の8割程度の雲 雲底高度 610m
30日23時 EDT ~ 31日3時 EDT に一時的に
全天の8割程度の雲 雲底高度 910m
31日0時 EDT ~ 31日2時 EDT に徐々に
風向・風速北西 6m/s
31日3時 EDT から
風向・風速西北西 6m/s
視程10km以上
全天の8割程度の雲 雲底高度 1220m
31日9時 EDT から
風向・風速西北西 8m/s
視程10km以上
全天の4割程度の雲 雲底高度 1220m
TAF CYUL 301738Z 3018/3118 25012G22KT P6SM SCT040
FM302100 25010KT P6SM BKN060
TEMPO 3021/3023 P6SM -SHRA
FM302300 25012G22KT P6SM OVC030
TEMPO 3023/3103 VRB15G25KT 4SM SHRA BR OVC020
FM310300 30012G22KT P6SM BKN020
TEMPO 3103/3107 BKN030
BECMG 3104/3106 31012KT
FM310700 30012KT P6SM BKN040
FM311300 29015KT P6SM SCT040 RMK NXT FCST BY 302100Z